DLH3PF EPGD-EDDF
Flight info
| Callsign | DLH3PF |
|---|---|
| Flight time | N/A |
| Altitude | 38000 |
| Route | DEXIR T671 VEKON L730 UNVOX DCT ALUKA DCT KOSIX DCT NIMAB T171 MAIXE/N0424F300 T171 LASTO T178 ROBEL/N0383F240 T178 KERAX KERAX5A/25R |
| Aircraft | A321/M-SDE2E3FGIJ1LORWXYZ/HB1 |
Departure
| Time | N/A |
|---|---|
| Airport | Gdańsk Lech Wałęsa Airport (EPGD) |
Arrival
| Time | 2026-05-03 20:15 |
|---|---|
| Airport | Frankfurt Main Airport (EDDF) |
| Time | Latitude | Longitude | Altitude | Speed | Heading |
|---|---|---|---|---|---|
| 2026-05-03 20:15 | 50.04077 | 8.54906 | 351 ft | 0 kts | 159° |
| 2026-05-03 20:16 | 50.04066 | 8.54912 | 358 ft | 4 kts | 160° |
| 2026-05-03 20:17 | 50.04023 | 8.54937 | 355 ft | 8 kts | 159° |
| 2026-05-03 20:17 | 50.03959 | 8.54976 | 356 ft | 12 kts | 159° |
| 2026-05-03 20:17 | 50.03872 | 8.55029 | 358 ft | 14 kts | 150° |
| 2026-05-03 20:17 | 50.03858 | 8.55149 | 357 ft | 11 kts | 74° |
| 2026-05-03 20:18 | 50.03883 | 8.55255 | 356 ft | 11 kts | 69° |
| 2026-05-03 20:18 | 50.03909 | 8.55367 | 349 ft | 11 kts | 70° |
| 2026-05-03 20:18 | 50.03937 | 8.55485 | 355 ft | 13 kts | 70° |
| 2026-05-03 20:18 | 50.03974 | 8.55644 | 353 ft | 17 kts | 69° |
| 2026-05-03 20:19 | 50.04020 | 8.55835 | 353 ft | 20 kts | 70° |
| 2026-05-03 20:19 | 50.04071 | 8.56046 | 359 ft | 20 kts | 69° |
| 2026-05-03 20:19 | 50.04116 | 8.56234 | 355 ft | 16 kts | 67° |
| 2026-05-03 20:19 | 50.04177 | 8.56274 | 354 ft | 8 kts | 348° |
| 2026-05-03 20:20 | 50.04223 | 8.56251 | 360 ft | 5 kts | 341° |
| 2026-05-03 20:20 | 50.04247 | 8.56238 | 359 ft | 3 kts | 341° |
| 2026-05-03 20:20 | 50.04274 | 8.56216 | 360 ft | 6 kts | 322° |
| 2026-05-03 20:20 | 50.04289 | 8.56144 | 355 ft | 9 kts | 272° |
| 2026-05-03 20:21 | 50.04335 | 8.56063 | 356 ft | 12 kts | 334° |
| 2026-05-03 20:21 | 50.04422 | 8.56046 | 359 ft | 13 kts | 30° |
| 2026-05-03 20:21 | 50.04461 | 8.56157 | 359 ft | 11 kts | 69° |
| 2026-05-03 20:21 | 50.04444 | 8.56196 | 365 ft | 3 kts | 156° |
| 2026-05-03 20:22 | 50.04421 | 8.56211 | 361 ft | 4 kts | 159° |
| 2026-05-03 20:22 | 50.04407 | 8.56219 | 360 ft | 1 kts | 159° |
| 2026-05-03 20:22 | 50.04405 | 8.56221 | 361 ft | 0 kts | 159° |